createdAt,value
2017-11-19T00:02:10.118Z,18.87
2017-11-19T00:04:39.533Z,17.50
2017-11-19T00:07:08.938Z,15.63
2017-11-19T00:09:38.369Z,18.20
2017-11-19T00:12:07.765Z,17.30
2017-11-19T00:14:37.150Z,17.80
2017-11-19T00:17:06.641Z,18.83
2017-11-19T00:19:36.012Z,17.00
2017-11-19T00:22:05.407Z,17.57
2017-11-19T00:24:34.786Z,21.87
2017-11-19T00:27:04.239Z,23.40
2017-11-19T00:29:34.249Z,23.60
2017-11-19T00:32:03.701Z,19.37
2017-11-19T00:34:33.097Z,19.33
2017-11-19T00:37:02.515Z,18.53
2017-11-19T00:39:31.900Z,20.27
2017-11-19T00:42:01.306Z,25.50
2017-11-19T00:44:30.696Z,25.30
2017-11-19T00:47:00.096Z,19.73
2017-11-19T00:49:29.498Z,25.40
2017-11-19T00:51:58.927Z,23.73
2017-11-19T00:54:28.294Z,28.67
2017-11-19T00:56:57.679Z,19.97
2017-11-19T00:59:27.076Z,22.33
2017-11-19T01:01:56.522Z,23.10
2017-11-19T01:04:25.935Z,20.23
2017-11-19T01:06:55.343Z,28.90
2017-11-19T01:09:24.758Z,33.03
2017-11-19T01:11:54.139Z,23.27
2017-11-19T01:14:23.538Z,22.87
2017-11-19T01:16:52.930Z,24.03
2017-11-19T01:19:22.733Z,22.83
2017-11-19T01:21:52.108Z,26.10
2017-11-19T01:24:21.516Z,21.43
2017-11-19T01:26:50.912Z,22.73
2017-11-19T01:29:20.310Z,26.30
2017-11-19T01:31:49.701Z,27.57
2017-11-19T01:34:19.120Z,24.43
2017-11-19T01:36:48.507Z,19.63
2017-11-19T01:39:17.921Z,29.23
2017-11-19T01:41:47.291Z,20.40
2017-11-19T01:44:16.689Z,24.97
2017-11-19T01:46:46.076Z,24.67
2017-11-19T01:49:15.475Z,27.50
2017-11-19T01:51:44.856Z,24.53
2017-11-19T01:54:14.264Z,28.33
2017-11-19T01:56:43.640Z,24.63
2017-11-19T01:59:13.044Z,22.40
2017-11-19T02:01:42.433Z,24.27
2017-11-19T02:04:11.841Z,23.93
2017-11-19T02:06:41.221Z,27.23
2017-11-19T02:09:10.628Z,22.03
2017-11-19T02:11:40.006Z,27.17
2017-11-19T02:14:09.430Z,20.50
2017-11-19T02:16:38.799Z,20.63
2017-11-19T02:19:08.194Z,20.90
2017-11-19T02:21:37.620Z,23.23
2017-11-19T02:24:07.064Z,18.53
2017-11-19T02:26:36.601Z,27.80
2017-11-19T02:29:06.097Z,23.47
2017-11-19T02:31:35.816Z,24.73
2017-11-19T02:34:05.601Z,22.10
2017-11-19T02:36:34.984Z,16.03
2017-11-19T02:39:04.407Z,20.93
2017-11-19T02:41:33.792Z,23.80
2017-11-19T02:44:03.160Z,22.47
2017-11-19T02:46:32.570Z,20.07
2017-11-19T02:49:01.937Z,17.50
2017-11-19T02:51:31.342Z,21.13
2017-11-19T02:54:00.758Z,22.03
2017-11-19T02:56:30.162Z,20.50
2017-11-19T02:58:59.565Z,19.53
2017-11-19T03:01:28.979Z,20.03
2017-11-19T03:03:58.372Z,17.80
2017-11-19T03:06:27.806Z,20.93
2017-11-19T03:08:57.178Z,21.90
2017-11-19T03:11:26.677Z,16.50
2017-11-19T03:13:56.057Z,16.20
2017-11-19T03:16:25.449Z,13.43
2017-11-19T03:18:54.840Z,16.80
2017-11-19T03:21:24.246Z,18.60
2017-11-19T03:23:53.621Z,13.03
2017-11-19T03:26:23.024Z,19.33
2017-11-19T03:28:52.417Z,22.07
2017-11-19T03:31:21.814Z,16.20
2017-11-19T03:33:51.202Z,11.70
2017-11-19T03:36:20.609Z,20.60
2017-11-19T03:38:49.997Z,15.60
2017-11-19T03:41:19.398Z,12.43
2017-11-19T03:43:48.796Z,13.23
2017-11-19T03:46:18.222Z,14.37
2017-11-19T03:48:47.614Z,18.17
2017-11-19T03:51:17.006Z,15.80
2017-11-19T03:53:46.375Z,15.77
2017-11-19T03:56:15.796Z,17.13
2017-11-19T03:58:45.632Z,16.73
2017-11-19T04:01:15.022Z,13.77
2017-11-19T04:03:44.383Z,14.27
2017-11-19T04:06:13.784Z,12.57
2017-11-19T04:08:43.149Z,17.23
2017-11-19T04:11:12.558Z,15.30
2017-11-19T04:13:41.934Z,11.33
2017-11-19T04:16:11.349Z,18.13
2017-11-19T04:18:40.712Z,18.37
2017-11-19T04:21:10.119Z,21.50
2017-11-19T04:23:39.493Z,19.90
2017-11-19T04:26:08.959Z,16.67
2017-11-19T04:28:38.338Z,16.77
2017-11-19T04:31:07.710Z,14.30
2017-11-19T04:33:37.117Z,15.40
2017-11-19T04:36:06.497Z,14.90
2017-11-19T04:38:35.916Z,19.27
2017-11-19T04:41:05.302Z,12.53
2017-11-19T04:43:34.693Z,28.63
2017-11-19T04:46:04.071Z,13.17
2017-11-19T04:48:33.475Z,13.87
2017-11-19T04:51:02.889Z,10.70
2017-11-19T04:53:32.299Z,14.30
2017-11-19T04:56:01.693Z,13.33
2017-11-19T04:58:31.092Z,12.93
2017-11-19T05:01:00.467Z,15.93
2017-11-19T05:03:29.884Z,19.43
2017-11-19T05:05:59.248Z,13.63
2017-11-19T05:08:28.641Z,16.33
2017-11-19T05:10:58.010Z,18.40
2017-11-19T05:13:27.406Z,14.37
2017-11-19T05:15:56.790Z,14.37
2017-11-19T05:18:26.173Z,10.13
2017-11-19T05:20:55.539Z,20.57
2017-11-19T05:23:24.940Z,17.77
2017-11-19T05:25:54.330Z,9.60
2017-11-19T05:28:23.773Z,11.60
2017-11-19T05:30:53.154Z,15.63
2017-11-19T05:33:22.563Z,14.53
2017-11-19T05:35:52.014Z,16.67
2017-11-19T05:38:21.437Z,17.67
2017-11-19T05:40:50.824Z,12.90
2017-11-19T05:43:20.221Z,14.07
2017-11-19T05:45:49.589Z,20.63
2017-11-19T05:48:19.006Z,16.90
2017-11-19T05:50:48.799Z,12.17
2017-11-19T05:53:18.190Z,13.20
2017-11-19T05:55:47.548Z,14.97
2017-11-19T05:58:16.940Z,13.47
2017-11-19T06:00:46.328Z,12.77
2017-11-19T06:03:15.725Z,17.23
2017-11-19T06:05:45.097Z,12.00
2017-11-19T06:08:14.502Z,13.87
2017-11-19T06:10:43.873Z,11.40
2017-11-19T06:13:13.272Z,11.90
2017-11-19T06:15:42.655Z,16.77
2017-11-19T06:18:12.040Z,7.80
2017-11-19T06:20:41.436Z,17.77
2017-11-19T06:23:10.817Z,10.80
2017-11-19T06:25:40.226Z,15.27
2017-11-19T06:28:09.596Z,13.70
2017-11-19T06:30:38.987Z,10.60
2017-11-19T06:33:10.019Z,10.13
2017-11-19T06:35:39.424Z,5.73
2017-11-19T06:38:08.806Z,11.80
2017-11-19T06:40:38.194Z,6.80
2017-11-19T06:43:07.565Z,20.27
2017-11-19T06:45:36.962Z,12.93
2017-11-19T06:48:06.337Z,10.83
2017-11-19T06:50:35.792Z,12.33
2017-11-19T06:53:05.203Z,10.00
2017-11-19T06:55:34.618Z,18.27
2017-11-19T06:58:03.988Z,11.53
2017-11-19T07:00:33.368Z,9.27
2017-11-19T07:03:02.794Z,12.00
2017-11-19T07:05:32.192Z,9.67
2017-11-19T07:08:01.578Z,9.20
2017-11-19T07:10:31.016Z,7.23
2017-11-19T07:13:00.389Z,6.80
2017-11-19T07:15:29.794Z,8.53
2017-11-19T07:17:59.148Z,8.10
2017-11-19T07:20:28.537Z,10.40
2017-11-19T07:22:57.917Z,7.30
2017-11-19T07:25:27.335Z,7.43
2017-11-19T07:27:56.989Z,6.20
2017-11-19T07:30:26.405Z,4.83
2017-11-19T07:32:56.094Z,8.77
2017-11-19T07:35:25.469Z,5.73
2017-11-19T07:37:55.013Z,8.03
2017-11-19T07:40:24.521Z,5.43
2017-11-19T07:42:53.898Z,11.53
2017-11-19T07:45:23.318Z,10.37
2017-11-19T07:47:52.696Z,10.90
2017-11-19T07:50:22.117Z,16.10
2017-11-19T07:52:51.501Z,12.00
2017-11-19T07:55:20.889Z,7.77
2017-11-19T07:57:50.266Z,10.13
2017-11-19T08:00:19.657Z,14.87
2017-11-19T08:02:49.024Z,5.43
2017-11-19T08:05:18.440Z,8.17
2017-11-19T08:07:47.808Z,12.43
2017-11-19T08:10:17.188Z,7.00
2017-11-19T08:12:46.600Z,5.87
2017-11-19T08:15:15.977Z,17.00
2017-11-19T08:17:45.390Z,8.20
2017-11-19T08:20:14.771Z,10.10
2017-11-19T08:22:44.166Z,12.50
2017-11-19T08:25:13.543Z,9.50
2017-11-19T08:27:42.934Z,8.70
2017-11-19T08:30:12.735Z,10.50
2017-11-19T08:32:42.143Z,9.37
2017-11-19T08:35:11.529Z,10.43
2017-11-19T08:37:40.924Z,13.97
2017-11-19T08:40:10.638Z,11.00
2017-11-19T08:42:40.240Z,12.70
2017-11-19T08:45:09.612Z,12.67
2017-11-19T08:47:39.023Z,9.13
2017-11-19T08:50:08.390Z,7.53
2017-11-19T08:52:37.790Z,5.73
2017-11-19T08:55:07.154Z,7.30
2017-11-19T08:57:36.574Z,10.40
2017-11-19T09:00:05.949Z,9.20
2017-11-19T09:02:41.026Z,9.10
2017-11-19T09:05:10.389Z,6.73
2017-11-19T09:07:39.789Z,6.53
2017-11-19T09:10:09.177Z,9.70
2017-11-19T09:12:38.591Z,5.53
2017-11-19T09:15:07.974Z,6.20
2017-11-19T09:17:37.401Z,4.80
2017-11-19T09:20:06.768Z,9.83
2017-11-19T09:22:36.147Z,6.90
2017-11-19T09:25:05.537Z,12.60
2017-11-19T09:27:34.946Z,14.63
2017-11-19T09:30:04.335Z,6.37
2017-11-19T09:32:33.739Z,8.80
2017-11-19T09:35:03.116Z,12.93
2017-11-19T09:37:32.513Z,3.57
2017-11-19T09:40:01.908Z,8.30
2017-11-19T09:42:31.335Z,10.30
2017-11-19T09:45:00.829Z,12.53
2017-11-19T09:47:30.254Z,9.90
2017-11-19T09:49:59.612Z,11.37
2017-11-19T09:52:29.005Z,16.67
2017-11-19T09:54:58.383Z,9.53
2017-11-19T09:57:27.800Z,7.30
2017-11-19T09:59:57.222Z,8.67
2017-11-19T10:02:26.633Z,11.93
2017-11-19T10:04:56.024Z,10.53
2017-11-19T10:07:25.389Z,9.03
2017-11-19T10:09:54.782Z,5.90
2017-11-19T10:12:24.145Z,5.10
2017-11-19T10:14:53.534Z,8.50
2017-11-19T10:17:22.912Z,5.73
2017-11-19T10:19:52.313Z,6.70
2017-11-19T10:22:21.686Z,17.23
2017-11-19T10:24:51.083Z,7.60
2017-11-19T10:27:20.452Z,6.00
2017-11-19T10:29:49.837Z,5.97
2017-11-19T10:32:19.220Z,10.10
2017-11-19T10:34:48.610Z,5.60
2017-11-19T10:37:17.996Z,4.47
2017-11-19T10:39:47.411Z,11.57
2017-11-19T10:42:16.799Z,6.90
2017-11-19T10:44:46.259Z,8.50
2017-11-19T10:47:15.621Z,4.80
2017-11-19T10:49:45.015Z,10.70
2017-11-19T10:52:14.386Z,8.40
2017-11-19T10:54:44.052Z,11.90
2017-11-19T10:57:13.671Z,3.40
2017-11-19T10:59:43.158Z,7.60
2017-11-19T11:02:12.764Z,7.23
2017-11-19T11:04:42.215Z,5.93
2017-11-19T11:07:11.593Z,8.53
2017-11-19T11:09:40.999Z,6.30
2017-11-19T11:12:10.375Z,5.90
2017-11-19T11:14:39.773Z,4.90
2017-11-19T11:17:09.144Z,11.83
2017-11-19T11:19:38.566Z,11.17
2017-11-19T11:22:08.030Z,5.57
2017-11-19T11:24:37.398Z,3.43
2017-11-19T11:27:07.012Z,9.33
2017-11-19T11:29:36.914Z,4.80
2017-11-19T11:32:06.326Z,6.87
2017-11-19T11:34:36.448Z,8.47
2017-11-19T11:37:05.847Z,5.83
2017-11-19T11:39:35.236Z,10.13
2017-11-19T11:42:04.676Z,5.97
2017-11-19T11:44:34.530Z,11.87
2017-11-19T11:47:04.291Z,8.63
2017-11-19T11:49:33.792Z,4.80
2017-11-19T11:52:03.285Z,6.60
2017-11-19T11:54:33.317Z,8.53
2017-11-19T11:57:02.715Z,5.87
2017-11-19T11:59:32.119Z,5.30
2017-11-19T12:02:01.900Z,4.37
2017-11-19T12:04:31.596Z,6.40
2017-11-19T12:07:00.985Z,9.93
2017-11-19T12:09:30.353Z,6.33
2017-11-19T12:11:59.783Z,7.60
2017-11-19T12:14:29.328Z,19.97
2017-11-19T12:16:58.750Z,24.13
2017-11-19T12:19:28.137Z,5.40
2017-11-19T12:21:57.665Z,11.60
2017-11-19T12:24:27.108Z,4.83
2017-11-19T12:26:56.507Z,7.00
2017-11-19T12:29:26.076Z,4.67
2017-11-19T12:31:55.476Z,9.67
2017-11-19T12:34:25.035Z,6.17
2017-11-19T12:36:54.493Z,9.70
2017-11-19T12:39:23.875Z,12.10
2017-11-19T12:41:53.291Z,13.23
2017-11-19T12:44:22.718Z,10.33
2017-11-19T12:46:52.132Z,10.07
2017-11-19T12:49:21.700Z,11.30
2017-11-19T12:51:51.232Z,8.30
2017-11-19T12:54:20.628Z,11.77
2017-11-19T12:56:51.103Z,5.50
2017-11-19T12:59:20.761Z,6.70
2017-11-19T13:01:50.151Z,9.83
2017-11-19T13:04:20.141Z,7.50
2017-11-19T13:06:49.588Z,9.30
2017-11-19T13:09:18.983Z,13.20
2017-11-19T13:11:48.414Z,11.43
2017-11-19T13:14:17.801Z,10.67
2017-11-19T13:16:47.235Z,13.60
2017-11-19T13:19:16.645Z,8.30
2017-11-19T13:21:46.019Z,19.73
2017-11-19T13:24:15.419Z,11.77
2017-11-19T13:26:44.779Z,11.50
2017-11-19T13:29:14.165Z,9.97
2017-11-19T13:31:44.902Z,15.43
2017-11-19T13:34:14.291Z,17.80
2017-11-19T13:36:43.673Z,16.53
2017-11-19T13:39:13.075Z,11.93
2017-11-19T13:41:42.440Z,14.30
2017-11-19T13:44:11.870Z,11.00
2017-11-19T13:46:41.281Z,8.23
2017-11-19T13:49:10.681Z,8.80
2017-11-19T13:51:40.055Z,18.73
2017-11-19T13:54:09.463Z,11.37
2017-11-19T13:56:38.826Z,14.90
2017-11-19T13:59:08.221Z,15.90
2017-11-19T14:01:37.621Z,8.13
2017-11-19T14:04:07.028Z,7.50
2017-11-19T14:06:36.426Z,6.93
2017-11-19T14:09:05.876Z,8.93
2017-11-19T14:11:35.246Z,6.27
2017-11-19T14:14:04.645Z,13.13
2017-11-19T14:16:34.031Z,6.90
2017-11-19T14:19:03.419Z,6.27
2017-11-19T14:21:32.789Z,5.90
2017-11-19T14:24:02.240Z,4.97
2017-11-19T14:26:31.650Z,12.80
2017-11-19T14:29:01.063Z,6.70
2017-11-19T14:31:30.443Z,5.53
2017-11-19T14:33:59.840Z,10.97
2017-11-19T14:36:29.213Z,4.60
2017-11-19T14:38:58.631Z,10.20
2017-11-19T14:41:27.988Z,6.73
2017-11-19T14:43:57.377Z,12.03
2017-11-19T14:46:26.746Z,6.77
2017-11-19T14:48:56.142Z,7.53
2017-11-19T14:51:25.522Z,11.13
2017-11-19T14:53:54.939Z,10.33
2017-11-19T14:56:24.312Z,13.00
2017-11-19T14:58:53.879Z,10.87
2017-11-19T15:01:23.298Z,6.30
2017-11-19T15:03:52.707Z,11.43
2017-11-19T15:06:22.088Z,11.50
2017-11-19T15:08:51.475Z,11.30
2017-11-19T15:11:21.291Z,9.90
2017-11-19T15:13:50.653Z,8.60
2017-11-19T15:16:20.275Z,11.57
2017-11-19T15:18:49.839Z,18.30
2017-11-19T15:21:19.249Z,16.77
2017-11-19T15:23:48.627Z,10.40
2017-11-19T15:26:18.040Z,12.27
2017-11-19T15:28:47.418Z,15.00
2017-11-19T15:31:16.808Z,20.23
2017-11-19T15:33:46.254Z,12.80
2017-11-19T15:36:15.654Z,19.40
2017-11-19T15:38:45.029Z,22.40
2017-11-19T15:41:14.430Z,11.23
2017-11-19T15:43:43.797Z,11.43
2017-11-19T15:46:13.194Z,19.00
2017-11-19T15:48:42.565Z,18.13
2017-11-19T15:51:11.951Z,12.33
2017-11-19T15:53:41.334Z,10.20
2017-11-19T15:56:10.732Z,12.20
2017-11-19T15:58:40.122Z,21.97
2017-11-19T16:01:09.539Z,11.07
2017-11-19T16:03:38.914Z,12.20
2017-11-19T16:06:08.309Z,19.00
2017-11-19T16:08:37.684Z,20.40
2017-11-19T16:11:07.077Z,14.87
2017-11-19T16:13:36.462Z,19.80
2017-11-19T16:16:05.868Z,12.03
2017-11-19T16:18:35.274Z,15.40
2017-11-19T16:21:04.681Z,18.73
2017-11-19T16:23:34.062Z,11.00
2017-11-19T16:26:03.502Z,15.27
2017-11-19T16:28:32.914Z,24.80
2017-11-19T16:31:02.312Z,19.47
2017-11-19T16:33:32.318Z,15.20
2017-11-19T16:36:01.753Z,14.77
2017-11-19T16:38:31.137Z,17.97
2017-11-19T16:41:00.514Z,26.37
2017-11-19T16:43:29.915Z,17.50
2017-11-19T16:45:59.277Z,15.00
2017-11-19T16:48:28.684Z,10.20
2017-11-19T16:50:58.057Z,11.63
2017-11-19T16:53:27.465Z,13.80
2017-11-19T16:55:56.836Z,13.67
2017-11-19T16:58:26.259Z,11.20
2017-11-19T17:00:55.670Z,14.90
2017-11-19T17:03:25.090Z,13.80
2017-11-19T17:05:54.504Z,19.43
2017-11-19T17:08:24.145Z,12.30
2017-11-19T17:10:53.887Z,17.20
2017-11-19T17:13:23.296Z,14.93
2017-11-19T17:15:52.690Z,12.73
2017-11-19T17:18:22.418Z,16.93
2017-11-19T17:20:51.897Z,13.87
2017-11-19T17:23:21.297Z,16.50
2017-11-19T17:25:50.999Z,17.97
2017-11-19T17:28:20.442Z,21.00
2017-11-19T17:30:50.677Z,19.10
2017-11-19T17:33:20.148Z,13.67
2017-11-19T17:36:04.447Z,16.10
2017-11-19T17:38:33.949Z,17.20
2017-11-19T17:41:03.520Z,13.63
2017-11-19T17:43:32.987Z,17.00
2017-11-19T17:46:02.361Z,16.93
2017-11-19T17:48:31.902Z,18.73
2017-11-19T17:51:01.277Z,14.83
2017-11-19T17:53:30.672Z,21.60
2017-11-19T17:56:00.243Z,19.93
2017-11-19T17:58:29.637Z,17.17
2017-11-19T18:00:59.328Z,22.53
2017-11-19T18:03:28.766Z,14.53
2017-11-19T18:05:58.142Z,14.57
2017-11-19T18:08:27.586Z,17.40
2017-11-19T18:10:57.136Z,18.87
2017-11-19T18:13:26.534Z,13.83
2017-11-19T18:15:56.305Z,12.37
2017-11-19T18:18:25.832Z,13.27
2017-11-19T18:20:55.217Z,12.90
2017-11-19T18:23:25.533Z,17.97
2017-11-19T18:25:54.905Z,18.30
2017-11-19T18:28:24.534Z,12.97
2017-11-19T18:30:53.921Z,14.33
2017-11-19T18:33:23.670Z,12.60
2017-11-19T18:35:53.089Z,17.70
2017-11-19T18:38:22.579Z,18.87
2017-11-19T18:40:52.104Z,17.90
2017-11-19T18:43:21.574Z,13.10
2017-11-19T18:45:51.027Z,19.03
2017-11-19T18:48:20.389Z,10.87
2017-11-19T18:50:49.857Z,17.20
2017-11-19T18:53:19.241Z,24.83
2017-11-19T18:55:48.642Z,14.17
2017-11-19T18:58:18.031Z,13.47
2017-11-19T19:00:47.429Z,24.63
2017-11-19T19:03:16.811Z,20.07
2017-11-19T19:05:46.204Z,15.50
2017-11-19T19:08:15.593Z,24.07
2017-11-19T19:10:45.014Z,16.23
2017-11-19T19:13:14.398Z,9.03
2017-11-19T19:15:43.790Z,21.33
2017-11-19T19:18:13.162Z,10.13
2017-11-19T19:20:42.556Z,9.67
2017-11-19T19:23:11.933Z,8.00
2017-11-19T19:25:41.323Z,9.50
2017-11-19T19:28:10.688Z,10.50
2017-11-19T19:30:40.095Z,14.30
2017-11-19T19:33:09.466Z,13.33
2017-11-19T19:35:38.861Z,15.27
2017-11-19T19:38:08.215Z,9.40
2017-11-19T19:40:37.600Z,20.93
2017-11-19T19:43:06.973Z,20.30
2017-11-19T19:45:36.379Z,12.20
2017-11-19T19:48:05.755Z,12.03
2017-11-19T19:50:35.162Z,13.77
2017-11-19T19:53:04.540Z,17.80
2017-11-19T19:55:33.944Z,20.80
2017-11-19T19:58:03.309Z,8.00
2017-11-19T20:00:32.716Z,11.93
2017-11-19T20:03:02.081Z,14.30
2017-11-19T20:05:31.984Z,26.63
2017-11-19T20:08:01.365Z,16.33
2017-11-19T20:10:30.773Z,11.97
2017-11-19T20:13:00.155Z,9.17
2017-11-19T20:15:29.549Z,7.93
2017-11-19T20:17:59.006Z,12.77
2017-11-19T20:20:28.402Z,11.57
2017-11-19T20:22:57.797Z,10.50
2017-11-19T20:25:27.427Z,14.57
2017-11-19T20:27:57.001Z,12.80
2017-11-19T20:30:26.462Z,17.83
2017-11-19T20:32:55.826Z,15.87
2017-11-19T20:35:25.193Z,18.97
2017-11-19T20:37:54.672Z,9.20
2017-11-19T20:40:24.062Z,16.50
2017-11-19T20:42:53.466Z,18.07
2017-11-19T20:45:22.852Z,13.83
2017-11-19T20:47:52.261Z,20.17
2017-11-19T20:50:21.640Z,20.00
2017-11-19T20:52:51.056Z,13.47
2017-11-19T20:55:20.418Z,10.47
2017-11-19T20:57:49.818Z,10.90
2017-11-19T21:00:19.225Z,18.07
2017-11-19T21:02:48.625Z,20.50
2017-11-19T21:05:17.993Z,15.60
2017-11-19T21:07:47.393Z,19.10
2017-11-19T21:10:16.755Z,25.17
2017-11-19T21:12:46.213Z,15.67
2017-11-19T21:15:15.583Z,11.77
2017-11-19T21:17:45.008Z,24.37
2017-11-19T21:20:14.377Z,10.73
2017-11-19T21:22:43.795Z,17.23
2017-11-19T21:25:13.173Z,11.27
2017-11-19T21:27:42.564Z,13.20
2017-11-19T21:30:11.939Z,17.33
2017-11-19T21:32:41.323Z,11.27
2017-11-19T21:35:10.698Z,16.60
2017-11-19T21:37:40.091Z,17.93
2017-11-19T21:40:09.476Z,17.87
2017-11-19T21:42:38.862Z,22.07
2017-11-19T21:45:08.237Z,15.80
2017-11-19T21:47:38.081Z,15.70
2017-11-19T21:50:07.444Z,13.33
2017-11-19T21:52:36.838Z,15.60
2017-11-19T21:55:06.297Z,23.13
2017-11-19T21:57:35.713Z,19.23
2017-11-19T22:00:05.142Z,30.97
2017-11-19T22:02:40.202Z,15.80
2017-11-19T22:05:09.586Z,16.83
2017-11-19T22:07:38.992Z,13.10
2017-11-19T22:10:10.189Z,17.70
2017-11-19T22:12:39.991Z,15.53
2017-11-19T22:15:09.374Z,14.93
2017-11-19T22:17:38.770Z,22.17
2017-11-19T22:20:08.556Z,19.40
2017-11-19T22:22:37.969Z,10.70
2017-11-19T22:25:07.342Z,17.80
2017-11-19T22:27:36.821Z,8.33
2017-11-19T22:30:07.312Z,14.77
2017-11-19T22:32:36.733Z,13.23
2017-11-19T22:35:06.170Z,12.70
2017-11-19T22:37:35.576Z,15.73
2017-11-19T22:40:05.063Z,12.33
2017-11-19T22:42:34.485Z,18.40
2017-11-19T22:45:03.867Z,14.97
2017-11-19T22:47:33.677Z,14.10
2017-11-19T22:50:03.045Z,14.83
2017-11-19T22:52:32.481Z,11.83
2017-11-19T22:55:01.850Z,21.97
2017-11-19T22:57:31.213Z,11.47
2017-11-19T23:00:00.603Z,15.07
2017-11-19T23:02:29.988Z,13.23
2017-11-19T23:04:59.369Z,15.90
2017-11-19T23:07:28.753Z,18.63
2017-11-19T23:09:58.137Z,17.13
2017-11-19T23:12:27.510Z,21.53
2017-11-19T23:14:56.917Z,24.90
2017-11-19T23:17:26.293Z,17.03
2017-11-19T23:19:55.692Z,15.87
2017-11-19T23:22:25.085Z,9.60
2017-11-19T23:24:54.511Z,23.13
2017-11-19T23:27:23.877Z,31.03
2017-11-19T23:29:53.273Z,14.87
2017-11-19T23:32:22.670Z,23.70
2017-11-19T23:34:52.060Z,11.63
2017-11-19T23:37:21.442Z,11.27
2017-11-19T23:39:50.876Z,17.20
2017-11-19T23:42:21.087Z,6.10
2017-11-19T23:44:50.497Z,16.00
2017-11-19T23:47:19.865Z,12.83
2017-11-19T23:49:49.332Z,14.47
2017-11-19T23:52:18.692Z,15.43
2017-11-19T23:54:48.131Z,15.97
2017-11-19T23:57:17.500Z,14.73
2017-11-19T23:59:46.892Z,9.20
